createdAt,value
2018-08-20T00:00:31.602Z,13.00
2018-08-20T00:02:59.250Z,12.90
2018-08-20T00:05:29.913Z,12.37
2018-08-20T00:07:58.232Z,11.77
2018-08-20T00:10:26.474Z,12.50
2018-08-20T00:12:54.091Z,11.60
2018-08-20T00:15:21.821Z,11.80
2018-08-20T00:17:49.384Z,12.05
2018-08-20T00:20:16.991Z,12.00
2018-08-20T00:22:44.540Z,10.70
2018-08-20T00:25:15.986Z,11.25
2018-08-20T00:27:44.216Z,10.27
2018-08-20T00:30:15.669Z,9.80
2018-08-20T00:32:44.350Z,10.57
2018-08-20T00:35:14.573Z,10.73
2018-08-20T00:37:47.144Z,10.80
2018-08-20T00:40:14.760Z,11.50
2018-08-20T00:42:42.330Z,10.95
2018-08-20T00:45:10.248Z,10.23
2018-08-20T00:47:37.840Z,11.77
2018-08-20T00:50:06.982Z,9.67
2018-08-20T00:52:34.684Z,11.80
2018-08-20T00:55:02.246Z,9.15
2018-08-20T00:57:30.094Z,11.50
2018-08-20T00:59:57.729Z,11.87
2018-08-20T01:02:29.047Z,11.23
2018-08-20T01:04:57.070Z,11.13
2018-08-20T01:07:25.080Z,10.97
2018-08-20T01:09:53.034Z,9.90
2018-08-20T01:12:20.642Z,9.63
2018-08-20T01:14:48.233Z,11.90
2018-08-20T01:17:15.860Z,10.70
2018-08-20T01:19:43.417Z,10.13
2018-08-20T01:22:10.969Z,9.93
2018-08-20T01:24:38.502Z,10.40
2018-08-20T01:27:06.088Z,11.80
2018-08-20T01:29:33.621Z,11.18
2018-08-20T01:32:01.376Z,11.20
2018-08-20T01:34:28.934Z,9.57
2018-08-20T01:36:56.465Z,10.23
2018-08-20T01:39:24.034Z,10.60
2018-08-20T01:41:51.587Z,9.95
2018-08-20T01:44:19.199Z,9.90
2018-08-20T01:46:46.858Z,10.57
2018-08-20T01:49:14.496Z,10.17
2018-08-20T01:51:42.100Z,10.15
2018-08-20T01:54:09.668Z,10.43
2018-08-20T01:56:37.225Z,10.93
2018-08-20T01:59:04.838Z,9.37
2018-08-20T02:01:32.478Z,9.83
2018-08-20T02:04:00.038Z,10.08
2018-08-20T02:06:27.588Z,9.77
2018-08-20T02:08:55.201Z,9.73
2018-08-20T02:11:22.775Z,8.90
2018-08-20T02:13:50.422Z,9.60
2018-08-20T02:16:18.040Z,8.95
2018-08-20T02:18:45.698Z,8.63
2018-08-20T02:21:13.241Z,9.80
2018-08-20T02:23:40.728Z,9.30
2018-08-20T02:26:08.329Z,9.20
2018-08-20T02:28:35.909Z,7.57
2018-08-20T02:31:03.522Z,7.40
2018-08-20T02:33:31.076Z,8.67
2018-08-20T02:35:58.645Z,9.25
2018-08-20T02:38:26.173Z,7.37
2018-08-20T02:40:53.747Z,7.40
2018-08-20T02:43:21.345Z,7.37
2018-08-20T02:45:48.939Z,7.00
2018-08-20T02:48:16.556Z,7.97
2018-08-20T02:50:44.115Z,7.20
2018-08-20T02:53:12.288Z,7.23
2018-08-20T02:55:39.948Z,6.90
2018-08-20T02:58:07.580Z,8.05
2018-08-20T03:00:35.176Z,7.75
2018-08-20T03:03:03.756Z,8.20
2018-08-20T03:05:32.345Z,7.70
2018-08-20T03:08:00.116Z,7.43
2018-08-20T03:10:27.698Z,7.27
2018-08-20T03:12:55.283Z,7.00
2018-08-20T03:15:22.858Z,6.77
2018-08-20T03:17:50.540Z,6.63
2018-08-20T03:20:18.144Z,7.33
2018-08-20T03:22:45.762Z,8.43
2018-08-20T03:25:13.398Z,7.70
2018-08-20T03:27:40.946Z,9.43
2018-08-20T03:30:09.397Z,9.00
2018-08-20T03:32:37.555Z,8.57
2018-08-20T03:35:07.255Z,9.00
2018-08-20T03:37:35.105Z,8.00
2018-08-20T03:40:02.773Z,8.90
2018-08-20T03:42:30.377Z,8.10
2018-08-20T03:44:58.700Z,8.83
2018-08-20T03:47:26.343Z,8.27
2018-08-20T03:49:53.974Z,8.63
2018-08-20T03:52:21.568Z,7.97
2018-08-20T03:54:49.106Z,7.00
2018-08-20T03:57:16.672Z,8.98
2018-08-20T03:59:44.310Z,8.77
2018-08-20T04:02:11.954Z,9.47
2018-08-20T04:04:39.673Z,9.10
2018-08-20T04:07:07.321Z,8.88
2018-08-20T04:09:35.261Z,8.50
2018-08-20T04:12:03.549Z,9.33
2018-08-20T04:14:31.127Z,8.63
2018-08-20T04:16:59.029Z,9.38
2018-08-20T04:19:27.033Z,9.23
2018-08-20T04:21:54.628Z,8.85
2018-08-20T04:24:22.271Z,9.83
2018-08-20T04:26:50.509Z,9.73
2018-08-20T04:29:18.375Z,9.68
2018-08-20T04:31:46.141Z,9.55
2018-08-20T04:34:13.817Z,9.97
2018-08-20T04:36:41.573Z,8.70
2018-08-20T04:39:09.695Z,10.07
2018-08-20T04:41:37.512Z,9.37
2018-08-20T04:44:05.111Z,10.27
2018-08-20T04:46:32.785Z,8.07
2018-08-20T04:49:00.620Z,7.45
2018-08-20T04:51:28.402Z,8.53
2018-08-20T04:53:55.876Z,8.30
2018-08-20T04:56:24.070Z,9.10
2018-08-20T04:58:51.635Z,7.70
2018-08-20T05:01:19.243Z,7.10
2018-08-20T05:03:46.834Z,8.58
2018-08-20T05:06:14.363Z,7.53
2018-08-20T05:08:41.985Z,8.45
2018-08-20T05:11:09.598Z,7.23
2018-08-20T05:13:37.684Z,7.20
2018-08-20T05:16:05.298Z,8.77
2018-08-20T05:18:32.896Z,7.50
2018-08-20T05:21:00.510Z,7.03
2018-08-20T05:23:28.114Z,7.73
2018-08-20T05:25:55.699Z,7.80
2018-08-20T05:28:23.686Z,6.73
2018-08-20T05:30:51.285Z,7.27
2018-08-20T05:33:18.961Z,7.30
2018-08-20T05:35:46.546Z,7.93
2018-08-20T05:38:14.186Z,7.58
2018-08-20T05:40:41.757Z,6.90
2018-08-20T05:43:09.467Z,7.43
2018-08-20T05:45:37.093Z,7.70
2018-08-20T05:48:04.897Z,7.28
2018-08-20T05:50:32.495Z,7.83
2018-08-20T05:53:00.111Z,8.47
2018-08-20T05:55:27.775Z,7.40
2018-08-20T05:57:55.455Z,8.53
2018-08-20T06:00:23.087Z,8.03
2018-08-20T06:02:50.698Z,7.90
2018-08-20T06:05:18.328Z,9.88
2018-08-20T06:07:45.914Z,7.53
2018-08-20T06:10:13.487Z,8.50
2018-08-20T06:12:41.060Z,7.25
2018-08-20T06:15:12.815Z,7.12
2018-08-20T06:17:40.582Z,8.90
2018-08-20T06:20:15.758Z,9.10
2018-08-20T06:22:43.398Z,7.50
2018-08-20T06:25:11.939Z,8.80
2018-08-20T06:27:40.100Z,8.10
2018-08-20T06:30:10.721Z,8.60
2018-08-20T06:32:38.335Z,8.23
2018-08-20T06:35:07.800Z,8.48
2018-08-20T06:37:38.253Z,8.60
2018-08-20T06:40:08.901Z,8.30
2018-08-20T06:42:36.598Z,9.00
2018-08-20T06:45:06.327Z,9.73
2018-08-20T06:47:33.906Z,9.13
2018-08-20T06:50:01.521Z,9.90
2018-08-20T06:52:29.131Z,8.60
2018-08-20T06:54:57.135Z,9.03
2018-08-20T06:57:24.777Z,9.33
2018-08-20T06:59:52.386Z,9.47
2018-08-20T07:02:20.073Z,8.38
2018-08-20T07:04:47.652Z,10.03
2018-08-20T07:07:15.273Z,8.53
2018-08-20T07:09:42.856Z,9.78
2018-08-20T07:12:10.429Z,10.17
2018-08-20T07:14:38.075Z,9.48
2018-08-20T07:17:05.673Z,9.90
2018-08-20T07:19:33.245Z,8.60
2018-08-20T07:22:01.268Z,10.28
2018-08-20T07:24:28.806Z,9.80
2018-08-20T07:26:56.342Z,9.80
2018-08-20T07:29:40.721Z,9.60
2018-08-20T07:32:10.327Z,10.80
2018-08-20T07:34:39.977Z,10.10
2018-08-20T07:37:09.302Z,9.23
2018-08-20T07:39:37.915Z,9.33
2018-08-20T07:42:05.562Z,9.30
2018-08-20T07:44:33.213Z,10.03
2018-08-20T07:47:00.818Z,10.70
2018-08-20T07:49:28.495Z,8.70
2018-08-20T07:51:56.102Z,8.90
2018-08-20T07:54:23.703Z,9.90
2018-08-20T07:56:51.388Z,9.87
2018-08-20T07:59:19.049Z,9.23
2018-08-20T08:01:46.643Z,9.77
2018-08-20T08:04:14.270Z,9.35
2018-08-20T08:06:41.953Z,8.67
2018-08-20T08:09:10.435Z,8.23
2018-08-20T08:11:38.048Z,9.30
2018-08-20T08:14:06.263Z,8.50
2018-08-20T08:16:35.141Z,7.53
2018-08-20T08:19:02.895Z,8.27
2018-08-20T08:21:30.693Z,9.30
2018-08-20T08:23:58.305Z,8.95
2018-08-20T08:26:25.962Z,9.77
2018-08-20T08:28:53.700Z,9.20
2018-08-20T08:31:21.317Z,10.37
2018-08-20T08:33:48.958Z,10.32
2018-08-20T08:36:16.570Z,10.70
2018-08-20T08:38:44.187Z,10.23
2018-08-20T08:41:11.864Z,10.93
2018-08-20T08:43:39.510Z,10.50
2018-08-20T08:46:07.184Z,9.90
2018-08-20T08:48:34.737Z,10.40
2018-08-20T08:51:02.324Z,9.13
2018-08-20T08:53:29.913Z,10.23
2018-08-20T08:55:57.509Z,9.85
2018-08-20T08:58:25.111Z,9.10
2018-08-20T09:00:52.758Z,10.53
2018-08-20T09:03:20.468Z,11.10
2018-08-20T09:05:48.215Z,9.90
2018-08-20T09:08:15.865Z,10.20
2018-08-20T09:10:43.529Z,8.85
2018-08-20T09:13:11.187Z,9.70
2018-08-20T09:15:38.855Z,9.30
2018-08-20T09:18:06.587Z,9.23
2018-08-20T09:20:34.249Z,9.08
2018-08-20T09:23:01.790Z,9.45
2018-08-20T09:25:29.405Z,9.73
2018-08-20T09:27:57.037Z,9.00
2018-08-20T09:30:24.669Z,8.33
2018-08-20T09:32:52.253Z,9.83
2018-08-20T09:35:19.962Z,11.30
2018-08-20T09:37:47.638Z,9.53
2018-08-20T09:40:15.330Z,9.00
2018-08-20T09:42:43.342Z,8.40
2018-08-20T09:45:10.896Z,11.40
2018-08-20T09:47:39.792Z,9.17
2018-08-20T09:50:12.465Z,9.03
2018-08-20T09:52:40.041Z,10.27
2018-08-20T09:55:08.275Z,10.30
2018-08-20T09:57:35.865Z,10.23
2018-08-20T10:00:06.993Z,10.13
2018-08-20T10:02:34.629Z,8.97
2018-08-20T10:05:02.301Z,9.58
2018-08-20T10:07:30.051Z,8.40
2018-08-20T10:09:57.597Z,10.20
2018-08-20T10:12:25.254Z,10.37
2018-08-20T10:14:53.166Z,9.23
2018-08-20T10:17:20.815Z,10.10
2018-08-20T10:19:48.409Z,10.30
2018-08-20T10:22:16.006Z,9.90
2018-08-20T10:24:43.636Z,9.63
2018-08-20T10:27:11.408Z,8.60
2018-08-20T10:29:38.973Z,10.03
2018-08-20T10:32:06.683Z,11.57
2018-08-20T10:34:34.175Z,10.90
2018-08-20T10:37:01.971Z,10.60
2018-08-20T10:39:29.597Z,10.70
2018-08-20T10:41:57.191Z,11.10
2018-08-20T10:44:24.798Z,10.67
2018-08-20T10:46:52.519Z,11.50
2018-08-20T10:49:20.090Z,12.10
2018-08-20T10:51:47.663Z,11.73
2018-08-20T10:54:15.264Z,11.73
2018-08-20T10:56:43.457Z,12.73
2018-08-20T10:59:11.054Z,13.22
2018-08-20T11:01:38.662Z,12.77
2018-08-20T11:04:06.350Z,14.40
2018-08-20T11:06:33.947Z,12.98
2018-08-20T11:09:01.602Z,12.40
2018-08-20T11:11:29.284Z,11.57
2018-08-20T11:13:56.844Z,12.23
2018-08-20T11:16:24.474Z,11.15
2018-08-20T11:18:52.142Z,10.90
2018-08-20T11:21:19.689Z,10.35
2018-08-20T11:23:47.271Z,11.63
2018-08-20T11:26:14.870Z,11.57
2018-08-20T11:28:42.410Z,10.18
2018-08-20T11:31:09.998Z,9.60
2018-08-20T11:33:37.629Z,10.70
2018-08-20T11:36:05.290Z,10.05
2018-08-20T11:38:32.876Z,10.03
2018-08-20T11:41:00.491Z,10.60
2018-08-20T11:43:28.108Z,8.73
2018-08-20T11:45:55.709Z,8.87
2018-08-20T11:48:23.333Z,10.08
2018-08-20T11:50:50.944Z,9.70
2018-08-20T11:53:18.740Z,9.97
2018-08-20T11:55:46.405Z,10.07
2018-08-20T11:58:14.172Z,9.27
2018-08-20T12:00:41.892Z,10.10
2018-08-20T12:03:09.476Z,9.00
2018-08-20T12:05:37.105Z,9.93
2018-08-20T12:08:04.765Z,9.10
2018-08-20T12:10:32.458Z,8.90
2018-08-20T12:13:00.034Z,9.23
2018-08-20T12:15:27.620Z,9.95
2018-08-20T12:17:55.874Z,10.20
2018-08-20T12:20:23.502Z,10.43
2018-08-20T12:22:51.238Z,8.90
2018-08-20T12:25:18.819Z,9.27
2018-08-20T12:27:46.456Z,8.43
2018-08-20T12:30:14.221Z,9.90
2018-08-20T12:32:42.173Z,10.40
2018-08-20T12:35:10.199Z,10.20
2018-08-20T12:37:38.451Z,9.57
2018-08-20T12:40:06.378Z,9.00
2018-08-20T12:42:33.981Z,9.03
2018-08-20T12:45:01.606Z,8.85
2018-08-20T12:47:29.614Z,9.57
2018-08-20T12:49:57.245Z,9.10
2018-08-20T12:52:24.859Z,9.30
2018-08-20T12:54:52.761Z,9.50
2018-08-20T12:57:20.444Z,8.50
2018-08-20T12:59:52.513Z,9.75
2018-08-20T13:02:20.070Z,9.47
2018-08-20T13:04:47.679Z,8.60
2018-08-20T13:07:15.314Z,7.97
2018-08-20T13:09:42.985Z,7.33
2018-08-20T13:12:10.657Z,6.90
2018-08-20T13:14:38.277Z,7.58
2018-08-20T13:17:06.046Z,8.03
2018-08-20T13:19:33.704Z,8.10
2018-08-20T13:22:01.505Z,8.70
2018-08-20T13:24:29.239Z,8.50
2018-08-20T13:26:56.889Z,8.70
2018-08-20T13:29:24.526Z,8.30
2018-08-20T13:31:52.189Z,8.15
2018-08-20T13:34:19.783Z,8.00
2018-08-20T13:36:47.523Z,7.53
2018-08-20T13:39:15.253Z,7.80
2018-08-20T13:41:42.977Z,8.40
2018-08-20T13:44:10.607Z,7.85
2018-08-20T13:46:38.241Z,7.67
2018-08-20T13:49:05.843Z,7.53
2018-08-20T13:51:33.570Z,7.30
2018-08-20T13:54:01.251Z,8.63
2018-08-20T13:56:28.937Z,6.83
2018-08-20T13:58:56.494Z,7.85
2018-08-20T14:01:24.132Z,8.07
2018-08-20T14:03:51.718Z,8.20
2018-08-20T14:06:19.393Z,8.33
2018-08-20T14:08:46.970Z,6.17
2018-08-20T14:11:14.580Z,6.80
2018-08-20T14:13:42.165Z,6.90
2018-08-20T14:16:09.714Z,6.95
2018-08-20T14:18:37.317Z,5.10
2018-08-20T14:21:11.642Z,4.50
2018-08-20T14:23:42.711Z,4.90
2018-08-20T14:26:10.334Z,4.70
2018-08-20T14:28:37.942Z,3.62
2018-08-20T14:31:05.675Z,4.00
2018-08-20T14:33:33.298Z,4.23
2018-08-20T14:36:00.953Z,4.60
2018-08-20T14:38:28.670Z,4.78
2018-08-20T14:40:56.358Z,4.50
2018-08-20T14:43:23.966Z,4.93
2018-08-20T14:45:57.285Z,5.70
2018-08-20T14:48:24.889Z,5.00
2018-08-20T14:50:52.498Z,5.37
2018-08-20T14:53:20.157Z,5.20
2018-08-20T14:55:47.749Z,5.30
2018-08-20T14:58:15.443Z,5.60
2018-08-20T15:00:43.086Z,4.40
2018-08-20T15:03:11.467Z,4.77
2018-08-20T15:05:39.102Z,5.37
2018-08-20T15:08:06.748Z,4.58
2018-08-20T15:10:34.342Z,4.40
2018-08-20T15:13:01.957Z,4.67
2018-08-20T15:15:29.615Z,4.67
2018-08-20T15:17:57.895Z,5.07
2018-08-20T15:20:25.535Z,4.77
2018-08-20T15:22:53.206Z,5.28
2018-08-20T15:25:20.777Z,4.77
2018-08-20T15:27:48.371Z,4.87
2018-08-20T15:30:15.934Z,4.22
2018-08-20T15:32:43.587Z,5.37
2018-08-20T15:35:11.271Z,5.10
2018-08-20T15:37:38.909Z,5.50
2018-08-20T15:40:06.627Z,4.83
2018-08-20T15:42:34.279Z,5.00
2018-08-20T15:45:01.900Z,4.62
2018-08-20T15:47:29.503Z,5.90
2018-08-20T15:49:57.152Z,5.00
2018-08-20T15:52:24.823Z,4.57
2018-08-20T15:54:52.760Z,4.75
2018-08-20T15:57:20.572Z,5.08
2018-08-20T15:59:48.257Z,6.03
2018-08-20T16:02:15.982Z,6.00
2018-08-20T16:04:43.666Z,5.10
2018-08-20T16:07:11.333Z,5.47
2018-08-20T16:09:39.045Z,5.08
2018-08-20T16:12:06.899Z,5.93
2018-08-20T16:14:34.563Z,5.00
2018-08-20T16:17:02.305Z,4.20
2018-08-20T16:19:29.904Z,4.53
2018-08-20T16:21:57.860Z,4.70
2018-08-20T16:24:25.463Z,4.80
2018-08-20T16:26:53.097Z,5.17
2018-08-20T16:29:20.678Z,4.90
2018-08-20T16:31:48.397Z,5.43
2018-08-20T16:34:16.080Z,4.20
2018-08-20T16:36:43.786Z,4.67
2018-08-20T16:39:12.383Z,4.22
2018-08-20T16:41:40.050Z,4.60
2018-08-20T16:44:08.746Z,4.35
2018-08-20T16:46:36.646Z,4.83
2018-08-20T16:49:04.696Z,4.23
2018-08-20T16:51:32.371Z,4.93
2018-08-20T16:53:59.967Z,4.85
2018-08-20T16:56:27.611Z,4.83
2018-08-20T16:58:55.299Z,5.00
2018-08-20T17:01:22.929Z,4.60
2018-08-20T17:03:50.614Z,5.17
2018-08-20T17:06:18.447Z,4.58
2018-08-20T17:08:46.164Z,3.83
2018-08-20T17:11:15.710Z,4.97
2018-08-20T17:13:43.610Z,4.30
2018-08-20T17:16:14.459Z,5.13
2018-08-20T17:18:42.082Z,4.23
2018-08-20T17:21:09.875Z,4.42
2018-08-20T17:23:37.563Z,3.80
2018-08-20T17:26:06.224Z,4.50
2018-08-20T17:28:33.904Z,3.40
2018-08-20T17:31:05.901Z,5.10
2018-08-20T17:33:34.431Z,4.00
2018-08-20T17:36:02.069Z,4.00
2018-08-20T17:38:29.752Z,4.08
2018-08-20T17:40:57.327Z,3.72
2018-08-20T17:43:25.065Z,3.30
2018-08-20T17:45:55.250Z,4.70
2018-08-20T17:48:28.904Z,3.20
2018-08-20T17:50:57.064Z,3.60
2018-08-20T17:53:35.614Z,3.20
2018-08-20T17:56:04.268Z,3.00
2018-08-20T17:58:31.970Z,2.40
2018-08-20T18:01:00.287Z,3.08
2018-08-20T18:03:28.536Z,3.53
2018-08-20T18:06:01.465Z,2.70
2018-08-20T18:08:30.706Z,2.83
2018-08-20T18:10:58.749Z,2.83
2018-08-20T18:13:45.047Z,3.10
2018-08-20T18:16:13.927Z,3.03
2018-08-20T18:18:43.369Z,2.87
2018-08-20T18:21:11.050Z,2.43
2018-08-20T18:23:38.761Z,2.85
2018-08-20T18:26:06.838Z,3.08
2018-08-20T18:28:42.277Z,1.98
2018-08-20T18:31:14.692Z,2.40
2018-08-20T18:33:43.768Z,2.73
2018-08-20T18:36:21.833Z,3.50
2018-08-20T18:38:51.720Z,2.90
2018-08-20T18:41:22.155Z,2.80
2018-08-20T18:43:49.995Z,3.27
2018-08-20T18:46:17.681Z,2.87
2018-08-20T18:48:45.350Z,2.87
2018-08-20T18:51:15.721Z,2.67
2018-08-20T18:53:43.627Z,3.13
2018-08-20T18:56:14.927Z,2.60
2018-08-20T18:58:43.668Z,2.17
2018-08-20T19:01:11.903Z,3.23
2018-08-20T19:03:45.462Z,2.70
2018-08-20T19:06:14.277Z,2.27
2018-08-20T19:08:42.388Z,2.83
2018-08-20T19:11:10.816Z,3.30
2018-08-20T19:13:38.780Z,2.80
2018-08-20T19:16:25.798Z,2.50
2018-08-20T19:18:53.881Z,2.50
2018-08-20T19:21:25.665Z,2.50
2018-08-20T19:23:55.066Z,3.03
2018-08-20T19:26:22.818Z,2.57
2018-08-20T19:28:50.502Z,2.67
2018-08-20T19:31:18.210Z,1.95
2018-08-20T19:33:45.984Z,2.50
2018-08-20T19:36:13.952Z,2.63
2018-08-20T19:38:41.776Z,2.37
2018-08-20T19:41:12.566Z,2.33
2018-08-20T19:43:50.792Z,3.07
2018-08-20T19:46:29.063Z,2.43
2018-08-20T19:49:03.060Z,2.50
2018-08-20T19:51:33.427Z,2.40
2018-08-20T19:54:01.243Z,2.83
2018-08-20T19:56:29.231Z,2.00
2018-08-20T19:58:57.010Z,3.47
2018-08-20T20:01:24.926Z,2.80
2018-08-20T20:03:52.976Z,2.90
2018-08-20T20:06:21.211Z,2.40
2018-08-20T20:08:48.862Z,2.93
2018-08-20T20:11:23.507Z,2.47
2018-08-20T20:13:55.807Z,2.00
2018-08-20T20:16:23.794Z,2.40
2018-08-20T20:18:51.888Z,2.17
2018-08-20T20:21:20.259Z,2.50
2018-08-20T20:23:48.015Z,2.70
2018-08-20T20:26:15.883Z,1.97
2018-08-20T20:28:45.941Z,2.27
2018-08-20T20:31:13.667Z,1.90
2018-08-20T20:33:41.378Z,2.17
2018-08-20T20:36:15.264Z,2.95
2018-08-20T20:38:43.408Z,3.17
2018-08-20T20:41:11.099Z,2.07
2018-08-20T20:43:38.713Z,2.30
2018-08-20T20:46:08.220Z,3.08
2018-08-20T20:48:36.120Z,3.50
2018-08-20T20:51:03.894Z,2.50
2018-08-20T20:53:31.655Z,2.40
2018-08-20T20:55:59.299Z,3.02
2018-08-20T20:58:32.917Z,2.20
2018-08-20T21:01:01.958Z,2.50
2018-08-20T21:03:29.987Z,2.33
2018-08-20T21:05:57.638Z,2.07
2018-08-20T21:08:32.237Z,1.80
2018-08-20T21:10:59.906Z,1.93
2018-08-20T21:16:08.192Z,2.17
2018-08-20T21:18:53.573Z,2.17
2018-08-20T21:21:22.118Z,2.13
2018-08-20T21:23:49.990Z,2.00
2018-08-20T21:26:17.746Z,1.70
2018-08-20T21:28:49.734Z,2.30
2018-08-20T21:31:18.681Z,2.20
2018-08-20T21:33:46.826Z,3.20
2018-08-20T21:36:14.952Z,4.23
2018-08-20T21:38:43.166Z,2.00
2018-08-20T21:41:10.836Z,2.77
2018-08-20T21:43:44.443Z,2.20
2018-08-20T21:46:12.476Z,2.13
2018-08-20T21:48:40.593Z,2.40
2018-08-20T21:51:17.183Z,2.10
2018-08-20T21:53:44.952Z,3.00
2018-08-20T21:56:12.978Z,2.10
2018-08-20T21:58:42.653Z,2.20
2018-08-20T22:01:12.108Z,2.00
2018-08-20T22:03:40.690Z,2.27
2018-08-20T22:06:08.483Z,2.20
2018-08-20T22:08:36.460Z,1.73
2018-08-20T22:11:04.204Z,2.10
2018-08-20T22:13:31.889Z,2.17
2018-08-20T22:16:21.945Z,1.85
2018-08-20T22:18:54.488Z,1.67
2018-08-20T22:21:22.285Z,2.70
2018-08-20T22:23:50.033Z,2.17
2018-08-20T22:26:19.455Z,2.50
2018-08-20T22:28:49.706Z,1.80
2018-08-20T22:31:17.692Z,2.27
2018-08-20T22:33:54.701Z,1.90
2018-08-20T22:36:22.350Z,1.90
2018-08-20T22:38:54.558Z,2.10
2018-08-20T22:41:23.388Z,3.27
2018-08-20T22:43:50.953Z,2.60
2018-08-20T22:46:19.755Z,2.62
2018-08-20T22:48:50.577Z,2.53
2018-08-20T22:51:18.925Z,2.93
2018-08-20T22:53:56.241Z,3.23
2018-08-20T22:56:30.812Z,2.90
2018-08-20T22:59:02.436Z,3.07
2018-08-20T23:04:04.842Z,3.30
2018-08-20T23:06:32.443Z,3.47
2018-08-20T23:09:22.345Z,3.60
2018-08-20T23:11:49.981Z,2.63
2018-08-20T23:14:17.515Z,2.72
2018-08-20T23:16:48.550Z,3.23
2018-08-20T23:19:16.365Z,2.83
2018-08-20T23:21:45.442Z,2.60
2018-08-20T23:24:14.012Z,2.90
2018-08-20T23:26:41.957Z,2.53
2018-08-20T23:29:09.898Z,2.87
2018-08-20T23:31:37.960Z,3.77
2018-08-20T23:34:10.990Z,2.70
2018-08-20T23:36:39.018Z,3.00
2018-08-20T23:39:10.870Z,2.37
2018-08-20T23:41:38.749Z,2.33
2018-08-20T23:44:06.662Z,3.50
2018-08-20T23:46:39.945Z,3.27
2018-08-20T23:49:07.836Z,2.73
2018-08-20T23:51:35.500Z,3.27
2018-08-20T23:54:03.139Z,3.07
2018-08-20T23:56:31.057Z,3.67
2018-08-20T23:58:59.116Z,2.75
